Mathews, Alabama
Current Conditions -  °F | °C
As of 5:58 AM on Wednesday 28 Jan 2015 (Local Time) from KMXF Reporting Station
Clear Clear  
Wind Chill: 34°   Ceiling: Unl
Heat Index: 34°   Visibility: 10mi
Dew Point: 29°   Wind: 2mph
Humidity: 82%   Direction: 290°WNW
Pressure: 30.25"   Gusts: NA
Location:  32.27°N, 86°W
Report Text: KMXF 281158Z AUTO 29002KT 10SM CLR 01/M01 A3025 RMK AO2 SLP247 T00121015 10064 20012 52020
Loading
Personal Weather Stations






























Interactive Weather Map New forecast layout! Learn more

10-Day Weather Forecast

Advertisements
Track Severe Weather on mobile